Fort Severn Airport
CYER : now visible

Airfield :











YOU CAN JOIN US ON...

 
LOGIN :

Register | Disclaimer

   EN    FR    IT 

 









Legend :    VFR   Marginal VFR   IFR   Intensive IFR   Very Intensive IFR
Visi :
Ceiling :
>= 8 km
>= 3000ft
5 to 8 km
1000 to 3000 ft
1500m to 5 km
500 to 1000 ft
800 to 1500m
200 to 500 ft
< 800m
< 200 ft
Symbols :   Thunderstorms  Fog  Heavy snow  Heavy precipitations  Wind > 20 kt






- Airport Elevation : 48 ft
- IATA code : YER


CYER - Fort Severn

CURRENT METAR :
  • 200700Z AUTO 23008KT 9SM OVC042 M01/M05 A3004 RMK SLP175

EXPIRED METARs :
  • 200656Z AUTO 23006KT 9SM OVC044 M01/M05 A3004 RMK SLP175
  • 200646Z AUTO 22006KT 9SM -SN OVC042 M01/M05 A3004 RMK SLP175
  • 200626Z AUTO 22006KT 9SM FEW032 OVC042 M01/M05 A3004 RMK SLP175
  • 200610Z AUTO 22006KT 9SM -SN SCT030 OVC040 M01/M04 A3004 RMK SLP175
  • 200600Z AUTO 22006KT 9SM BKN033 OVC042 M01/M04 A3004 RMK SLP175
  • 200500Z AUTO 21006KT 9SM SCT041 BKN100 M02/M04 A3004 RMK SLP175

Expired Forecast.
CZWG FIR / North America



MET'MAP, your aeronautical weather chart ! - Copyright ORBIFLY December 2007 - Disclaimer

ORBIFLY MET'MAP TEAM :

Programming & Development : Alexandra Zaïnal
Concept & original design : Baudouin d'Aumeries
Assistance for programming : Marc-Olivier Méhu
Technical & hardware support : Manuel Goepfert

Contact : metmap@orbifly.com




SOURCES & CREDITS :

   NOAA       Earth
Advisory